Izhevsk, Russia
Current Conditions -  °F | °C
As of 4:30 PM on Saturday 25 Oct 2014 (Local Time) from UWKE Reporting Station
Broken Clouds Broken Clouds  
Wind Chill:   Ceiling: 2400
Heat Index: 21°   Visibility: 6mi
Dew Point: 12°   Wind: 18mph
Humidity: 68%   Direction: 340°NNW
Pressure: 30.24"   Gusts: 25mph
Location:  56.85°N, 53.23°E
Report Text: UWKE 251230Z 34008G11MPS 9999 BKN024CB M06/M11 Q1024 NOSIG RMKQFE750/1001 03420560
Loading
Personal Weather Stations






























Interactive Weather Map
Tropical Storm Tracking
New forecast layout! Learn more

10-Day Weather Forecast

Advertisements
Track Severe Weather on mobile